createdAt,value
2018-11-02T00:02:17.754Z,67.00
2018-11-02T00:05:16.870Z,67.10
2018-11-02T00:08:20.289Z,66.90
2018-11-02T00:11:32.449Z,66.90
2018-11-02T00:14:30.010Z,67.20
2018-11-02T00:17:24.264Z,67.30
2018-11-02T00:20:19.074Z,67.10
2018-11-02T00:23:16.559Z,67.20
2018-11-02T00:26:07.158Z,67.00
2018-11-02T00:29:04.393Z,67.10
2018-11-02T00:32:01.567Z,67.00
2018-11-02T00:34:55.417Z,67.00
2018-11-02T00:37:50.271Z,67.00
2018-11-02T00:40:44.911Z,67.00
2018-11-02T00:43:38.699Z,67.10
2018-11-02T00:46:34.332Z,67.10
2018-11-02T00:49:28.284Z,67.10
2018-11-02T00:52:26.643Z,67.00
2018-11-02T00:55:22.224Z,67.20
2018-11-02T00:58:17.657Z,67.10
2018-11-02T01:01:12.018Z,67.20
2018-11-02T01:04:06.063Z,67.30
2018-11-02T01:07:00.348Z,67.00
2018-11-02T01:09:54.672Z,67.20
2018-11-02T01:12:52.247Z,67.20
2018-11-02T01:15:42.932Z,67.00
2018-11-02T01:18:36.954Z,66.80
2018-11-02T01:21:34.026Z,67.00
2018-11-02T01:24:28.084Z,67.00
2018-11-02T01:27:29.384Z,67.10
2018-11-02T01:30:42.164Z,66.90
2018-11-02T01:33:59.630Z,66.90
2018-11-02T01:37:28.504Z,66.90
2018-11-02T01:48:37.357Z,67.00
2018-11-02T01:51:24.488Z,66.80
2018-11-02T01:54:18.684Z,67.00
2018-11-02T01:57:13.985Z,66.80
2018-11-02T02:00:08.375Z,66.90
2018-11-02T02:03:02.725Z,66.80
2018-11-02T02:05:56.603Z,67.10
2018-11-02T02:08:50.564Z,67.20
2018-11-02T02:11:44.648Z,67.10
2018-11-02T02:14:38.546Z,67.20
2018-11-02T02:17:39.902Z,67.30
2018-11-02T02:20:33.618Z,67.20
2018-11-02T02:23:28.551Z,67.20
2018-11-02T02:26:22.724Z,67.10
2018-11-02T02:29:16.541Z,67.20
2018-11-02T02:32:10.429Z,67.20
2018-11-02T02:35:04.441Z,67.20
2018-11-02T02:37:58.658Z,67.30
2018-11-02T02:40:55.151Z,67.40
2018-11-02T02:43:49.179Z,67.40
2018-11-02T02:46:43.130Z,67.40
2018-11-02T02:49:36.880Z,71.10
2018-11-02T02:52:37.317Z,68.30
2018-11-02T02:55:27.418Z,68.00
2018-11-02T02:58:21.201Z,67.90
2018-11-02T03:01:14.949Z,67.90
2018-11-02T03:04:08.849Z,67.90
2018-11-02T03:07:02.595Z,67.90
2018-11-02T03:09:56.285Z,67.80
2018-11-02T03:12:49.936Z,67.80
2018-11-02T03:15:44.038Z,67.70
2018-11-02T03:18:37.984Z,67.70
2018-11-02T03:21:41.296Z,67.70
2018-11-02T03:24:28.935Z,67.70
2018-11-02T03:27:24.860Z,67.70
2018-11-02T03:30:18.735Z,67.60
2018-11-02T03:33:12.523Z,67.60
2018-11-02T03:36:06.639Z,67.60
2018-11-02T03:39:00.881Z,67.60
2018-11-02T03:41:55.565Z,67.70
2018-11-02T03:44:51.568Z,67.20
2018-11-02T03:47:49.389Z,67.00
2018-11-02T03:50:43.533Z,63.70
2018-11-02T03:53:44.068Z,60.80
2018-11-02T03:56:52.114Z,58.90
2018-11-02T03:59:53.682Z,57.70
2018-11-02T04:02:54.518Z,56.40
2018-11-02T04:06:04.768Z,55.50
2018-11-02T04:09:04.041Z,54.70
2018-11-02T04:12:24.134Z,54.20
2018-11-02T04:15:06.593Z,53.60
2018-11-02T04:18:14.011Z,55.00
2018-11-02T04:21:04.515Z,55.50
2018-11-02T04:23:57.012Z,57.10
2018-11-02T04:27:18.473Z,57.00
2018-11-02T04:29:52.603Z,57.40
2018-11-02T04:32:46.795Z,57.50
2018-11-02T04:35:48.106Z,57.40
2018-11-02T04:42:27.603Z,57.70
2018-11-02T04:46:06.937Z,58.00
2018-11-02T04:49:49.996Z,58.10
2018-11-02T04:53:09.587Z,58.00
2018-11-02T04:56:14.250Z,57.90
2018-11-02T04:59:13.036Z,57.80
2018-11-02T05:02:17.466Z,57.90
2018-11-02T05:09:44.475Z,58.40
2018-11-02T05:12:54.635Z,58.50
2018-11-02T05:16:05.128Z,58.60
2018-11-02T05:19:00.389Z,60.50
2018-11-02T05:30:19.107Z,61.60
2018-11-02T06:05:48.651Z,63.10
2018-11-02T06:08:53.374Z,63.10
2018-11-02T06:11:56.226Z,62.90
2018-11-02T06:14:54.063Z,62.90
2018-11-02T06:18:20.189Z,63.00
2018-11-02T06:25:17.631Z,63.40
2018-11-02T06:28:13.955Z,63.30
2018-11-02T06:32:45.157Z,63.20
2018-11-02T06:34:56.788Z,63.10
2018-11-02T06:37:55.303Z,62.90
2018-11-02T06:41:05.685Z,62.60
2018-11-02T06:43:56.833Z,62.30
2018-11-02T06:46:53.603Z,62.20
2018-11-02T06:49:51.032Z,62.20
2018-11-02T06:52:46.202Z,61.90
2018-11-02T06:55:52.895Z,61.90
2018-11-02T06:58:46.566Z,61.70
2018-11-02T07:02:03.363Z,61.60
2018-11-02T07:04:58.586Z,61.50
2018-11-02T07:08:00.309Z,61.20
2018-11-02T07:10:54.671Z,61.10
2018-11-02T07:13:51.013Z,61.10
2018-11-02T07:16:51.476Z,61.10
2018-11-02T07:19:59.350Z,61.10
2018-11-02T07:22:48.846Z,61.10
2018-11-02T07:25:43.155Z,61.10
2018-11-02T07:28:47.769Z,61.10
2018-11-02T07:32:00.387Z,61.10
2018-11-02T07:34:59.580Z,61.10
2018-11-02T07:37:56.559Z,61.10
2018-11-02T07:40:56.689Z,61.20
2018-11-02T07:44:09.537Z,61.10
2018-11-02T07:47:32.465Z,61.00
2018-11-02T07:50:27.717Z,60.80
2018-11-02T07:55:40.615Z,60.60
2018-11-02T07:57:26.556Z,60.40
2018-11-02T08:00:24.764Z,60.40
2018-11-02T08:03:26.319Z,60.40
2018-11-02T08:06:26.144Z,60.80
2018-11-02T08:09:28.539Z,60.20
2018-11-02T08:12:26.755Z,60.00
2018-11-02T08:15:22.979Z,60.10
2018-11-02T08:21:20.956Z,60.00
2018-11-02T08:24:18.307Z,60.20
2018-11-02T08:27:13.047Z,60.00
2018-11-02T08:30:28.594Z,60.00
2018-11-02T08:33:28.512Z,60.10
2018-11-02T08:36:27.666Z,60.10
2018-11-02T08:40:03.452Z,60.10
2018-11-02T08:43:00.647Z,60.20
2018-11-02T08:46:12.105Z,60.40
2018-11-02T08:49:09.558Z,60.10
2018-11-02T08:56:12.165Z,59.90
2018-11-02T08:59:12.965Z,60.00
2018-11-02T09:02:07.309Z,59.90
2018-11-02T09:05:10.205Z,60.00
2018-11-02T09:08:01.775Z,59.00
2018-11-02T09:11:08.963Z,57.00
2018-11-02T09:15:01.612Z,56.30
2018-11-02T09:18:51.376Z,55.20
2018-11-02T09:22:37.893Z,54.50
2018-11-02T09:25:26.603Z,53.70
2018-11-02T09:28:22.804Z,53.40
2018-11-02T09:31:27.427Z,53.10
2018-11-02T09:46:41.521Z,53.00
2018-11-02T09:54:31.942Z,52.60
2018-11-02T09:58:06.881Z,53.30
2018-11-02T10:05:36.428Z,52.90
2018-11-02T10:09:19.535Z,53.10
2018-11-02T10:13:09.310Z,53.00
2018-11-02T10:16:33.488Z,53.10
2018-11-02T10:23:36.463Z,53.20
2018-11-02T10:26:58.469Z,53.60
2018-11-02T10:29:55.146Z,53.60
2018-11-02T10:32:57.024Z,53.70
2018-11-02T10:35:53.183Z,54.20
2018-11-02T10:39:45.755Z,53.40
2018-11-02T10:42:31.522Z,53.40
2018-11-02T10:45:33.835Z,53.40
2018-11-02T10:48:48.313Z,53.70
2018-11-02T10:52:15.266Z,53.20
2018-11-02T10:55:30.879Z,53.10
2018-11-02T10:58:35.593Z,52.80
2018-11-02T11:01:50.957Z,52.60
2018-11-02T11:12:33.080Z,52.10
2018-11-02T11:19:43.604Z,52.30
2018-11-02T11:22:37.777Z,52.10
2018-11-02T11:25:31.865Z,52.30
2018-11-02T11:28:27.273Z,52.70
2018-11-02T11:34:41.660Z,51.00
2018-11-02T11:41:05.212Z,49.60
2018-11-02T11:44:02.114Z,49.20
2018-11-02T11:47:04.693Z,48.90
2018-11-02T11:49:59.731Z,48.30
2018-11-02T11:52:54.950Z,48.20
2018-11-02T11:56:21.041Z,48.10
2018-11-02T11:59:19.298Z,47.90
2018-11-02T12:09:15.102Z,47.30
2018-11-02T12:16:41.234Z,47.80
2018-11-02T12:19:36.363Z,50.70
2018-11-02T12:22:30.880Z,53.10
2018-11-02T12:26:50.676Z,54.50
2018-11-02T12:29:32.986Z,55.50
2018-11-02T12:32:38.258Z,56.20
2018-11-02T12:35:32.002Z,57.00
2018-11-02T12:38:28.985Z,57.50
2018-11-02T12:41:22.633Z,57.80
2018-11-02T12:44:16.361Z,58.10
2018-11-02T12:47:18.773Z,58.40
2018-11-02T12:50:18.288Z,58.50
